Bei Facebook empfehlenBei Twitter postenGoogle plusPinterest

Das Wetter im Erzgebirge am 11.03.2015

Wetter und Klima am 11.03.2015 Holzhau im Erzgebirge (630m ü.NN)
Letzte gemessene Temperatur und Uhrzeit der Messung23:45:00 Uhr0.20 °C
Temperatur (Maximum / Höchstwert) und Uhrzeit der Messung00:00:00 Uhr3.20 °C
Temperatur (Minimum / Tiefstwert) und Uhrzeit der Messung08:30:00-0.90 °C
Errechneter Absolutwert der Temperaturschwankungen zwischen Tmin und Tmax des Tages4.10 K
Errechnete Tagesmitteltemperatur0.74896 °C
Gesamt - Niederschlag des Tages (in flüssiger Form)3.11 Liter / m²
Luftdruck (Maximum / Höchstwert) und Zeitpunkt der Messung22:45:00 Uhr1024.10 hPa
Luftdruck (Minimum / Tiefstwert) und Zeitpunkt der Messung05:30:00 Uhr1021.20 hPa
Errechneter Absolutwert der Luftdruckschwankungen des Tages2.90 hPa
Höchste gemessene Windgeschwindigkeit und Uhrzeit der Messung02:30:00 Uhr10.08 km/h
Errechnete Windhäufigkeit in Relation zu den Messwerten des Tages17.70833 %
Niedrigste Windkühle (Windchill) und Zeitpunkt der Messung08:15:00 Uhr-3.10 °C
Taupunkt (Maximum / Höchstwert) und Uhrzeit der Messung00:00:00 Uhr1.90 °C
Taupunkt (Minimum / Tiefstwert) und Uhrzeit der Messung08:30:00-2.50 °C
Anzahl der automatisch eingelesenen Messwerte 96

Detaillierte Wetter- und Klima- Messwerte für den 11.03.2015 in Holzhau im Erzgebirge (630m ü.NN)
ZeitTemperaturLuftdruckRel. LuftfeuchteWindWindrichtungWindchillTaupunktNiederschlag l/m²
23:45:000.20 °C1023.90 hPa92.00 %-0.90 °C3.11
23:30:000.20 °C1023.90 hPa92.00 %-0.90 °C3.11
23:15:000.20 °C1023.90 hPa92.00 %-0.90 °C3.11
23:00:000.20 °C1024.00 hPa92.00 %-0.90 °C3.11
22:45:000.20 °C1024.10 hPa92.00 %-0.90 °C3.11
22:30:000.20 °C1023.80 hPa92.00 %-0.90 °C3.11
22:15:000.20 °C1023.80 hPa92.00 %-0.90 °C3.11
22:00:000.20 °C1023.80 hPa92.00 %-0.90 °C3.11
21:45:000.20 °C1023.60 hPa91.00 %-1.10 °C3.11
21:30:000.30 °C1023.60 hPa91.00 %-1.00 °C3.11
21:15:000.30 °C1023.60 hPa91.00 %-1.00 °C3.11
21:00:000.40 °C1023.50 hPa91.00 %-0.90 °C3.11
20:45:000.40 °C1023.70 hPa91.00 %-0.90 °C3.11
20:30:000.40 °C1023.50 hPa91.00 %-0.90 °C3.11
20:15:000.40 °C1023.40 hPa91.00 %-0.90 °C3.11
20:00:000.40 °C1023.50 hPa90.00 %-1.00 °C3.11
19:45:000.30 °C1023.30 hPa90.00 %-1.10 °C3.11
19:30:000.40 °C1023.30 hPa90.00 %-1.00 °C3.11
19:15:000.40 °C1023.40 hPa89.00 %-1.20 °C3.11
19:00:000.40 °C1023.50 hPa89.00 %-1.20 °C3.11
18:45:000.40 °C1023.40 hPa89.00 %-1.20 °C3.11
18:30:000.40 °C1023.30 hPa89.00 %-1.20 °C3.11
18:15:000.50 °C1023.10 hPa89.00 %3.96 km/hWNW0.50 °C-1.10 °C3.11
18:00:000.60 °C1023.10 hPa89.00 %-1.00 °C3.11
17:45:000.70 °C1023.10 hPa88.00 %-1.10 °C3.11
17:30:000.80 °C1022.90 hPa88.00 %-1.00 °C3.11
17:15:000.90 °C1022.80 hPa88.00 %-0.90 °C3.11
17:00:000.90 °C1022.80 hPa87.00 %-1.00 °C3.11
16:45:001.00 °C1022.90 hPa87.00 %-0.90 °C3.11
16:30:001.30 °C1022.70 hPa87.00 %-0.60 °C3.11
16:15:001.40 °C1022.70 hPa87.00 %3.60 km/hNNW1.40 °C-0.50 °C3.11
16:00:001.60 °C1022.80 hPa88.00 %-0.20 °C3.11
15:45:001.40 °C1022.70 hPa88.00 %-0.40 °C3.11
15:30:001.10 °C1022.70 hPa88.00 %-0.70 °C3.11
15:15:001.00 °C1022.70 hPa88.00 %4.32 km/hNW1.00 °C-0.80 °C3.11
15:00:000.90 °C1022.70 hPa87.00 %-1.00 °C3.11
14:45:001.00 °C1022.70 hPa86.00 %-1.10 °C3.11
14:30:001.30 °C1022.70 hPa85.00 %-0.90 °C3.11
14:15:001.40 °C1022.70 hPa83.00 %-1.20 °C3.11
14:00:001.90 °C1022.70 hPa82.00 %-0.80 °C3.11
13:45:002.30 °C1022.50 hPa81.00 %-0.60 °C3.11
13:30:002.30 °C1022.40 hPa81.00 %-0.60 °C3.11
13:15:002.30 °C1022.60 hPa81.00 %-0.60 °C3.11
13:00:002.30 °C1022.70 hPa84.00 %-0.10 °C3.11
12:45:001.60 °C1022.70 hPa85.00 %-0.60 °C3.11
12:30:001.50 °C1022.60 hPa85.00 %-0.70 °C3.11
12:15:001.40 °C1022.70 hPa86.00 %-0.70 °C3.11
12:00:001.30 °C1022.70 hPa85.00 %-0.90 °C3.11
11:45:001.50 °C1022.60 hPa87.00 %-0.40 °C3.11
11:30:001.20 °C1022.60 hPa87.00 %-0.70 °C3.11
11:15:000.80 °C1022.70 hPa87.00 %-1.10 °C3.11
11:00:000.60 °C1022.70 hPa88.00 %-1.20 °C3.11
10:45:000.50 °C1022.80 hPa89.00 %-1.10 °C3.11
10:30:000.30 °C1022.80 hPa89.00 %-1.30 °C3.11
10:15:000.10 °C1022.90 hPa89.00 %-1.50 °C3.11
10:00:00-0.20 °C1022.90 hPa89.00 %-2.00 °C3.11
09:45:00-0.30 °C1022.80 hPa89.00 %2.88 km/hNW-0.30 °C-2.10 °C3.11
09:30:00-0.20 °C1022.80 hPa90.00 %-1.80 °C3.11
09:15:00-0.50 °C1022.80 hPa90.00 %-2.10 °C3.11
09:00:00-0.60 °C1022.70 hPa90.00 %-2.20 °C3.11
08:45:00-0.70 °C1022.70 hPa90.00 %-2.30 °C3.11
08:30:00-0.90 °C1022.70 hPa90.00 %-2.50 °C3.11
08:15:00-0.90 °C1022.60 hPa90.00 %6.12 km/hNW-3.10 °C-2.50 °C3.11
08:00:00-0.90 °C1022.60 hPa91.00 %-2.30 °C3.11
07:45:00-0.80 °C1022.50 hPa91.00 %-2.20 °C3.11
07:30:00-0.70 °C1022.40 hPa91.00 %-2.10 °C3.11
07:15:00-0.60 °C1022.30 hPa91.00 %1.80 km/hW-0.60 °C-2.00 °C3.11
07:00:00-0.40 °C1022.10 hPa91.00 %0.36 km/hWNW-0.40 °C-1.80 °C3.11
06:45:00-0.40 °C1021.80 hPa91.00 %2.52 km/hWNW-0.40 °C-1.80 °C3.11
06:30:00-0.40 °C1021.70 hPa91.00 %-1.80 °C3.11
06:15:00-0.40 °C1021.80 hPa91.00 %7.20 km/hW-2.90 °C-1.80 °C3.11
06:00:00-0.40 °C1021.80 hPa92.00 %5.04 km/hNW-2.10 °C-1.70 °C3.11
05:45:00-0.20 °C1021.50 hPa92.00 %3.24 km/hNNW-0.20 °C-1.50 °C3.11
05:30:00-0.20 °C1021.20 hPa91.00 %-1.60 °C3.11
05:15:00-0.10 °C1021.40 hPa91.00 %4.68 km/hSW-0.10 °C-1.50 °C3.11
05:00:00-0.10 °C1021.60 hPa92.00 %-1.40 °C3.11
04:45:000.20 °C1021.60 hPa92.00 %9.00 km/hW-2.80 °C-0.90 °C3.11
04:30:000.20 °C1021.50 hPa92.00 %-0.90 °C3.11
04:15:000.40 °C1021.60 hPa92.00 %-0.70 °C3.11
04:00:000.80 °C1021.40 hPa92.00 %-0.30 °C3.11
03:45:001.00 °C1021.30 hPa92.00 %-0.10 °C3.11
03:30:001.20 °C1021.20 hPa91.00 %-0.10 °C3.11
03:15:001.40 °C1021.40 hPa92.00 %9.36 km/hNW-1.50 °C0.20 °C3.11
03:00:001.60 °C1021.50 hPa92.00 %5.76 km/hWSW-0.10 °C0.40 °C3.11
02:45:001.80 °C1021.40 hPa92.00 %0.60 °C3.11
02:30:001.90 °C1021.30 hPa92.00 %10.08 km/hW-1.10 °C0.70 °C3.11
02:15:002.10 °C1021.50 hPa92.00 %0.90 °C3.11
02:00:002.10 °C1021.60 hPa92.00 %0.90 °C3.11
01:45:002.10 °C1021.70 hPa91.00 %0.80 °C3.11
01:30:002.10 °C1022.00 hPa91.00 %0.80 °C2.59
01:15:002.30 °C1021.90 hPa91.00 %2.52 km/hSO2.30 °C1.00 °C2.08
01:00:002.50 °C1021.70 hPa91.00 %1.20 °C1.04
00:45:002.80 °C1021.80 hPa91.00 %1.50 °C0.52
00:30:002.80 °C1021.90 hPa91.00 %1.50 °C 
00:15:002.90 °C1021.90 hPa91.00 %1.60 °C 
00:00:003.20 °C1021.90 hPa91.00 %1.90 °C 

Permanenter Link zu dieser Seite: Wetter im Erzgebirge am 11.03.2015
Performance-Info: Die Erstellung der Seite / Statistik(en) / Tabelle(n) erforderte 5 Datenbankserver-Abfrage(n) und dauerte 119 Millisekunden. (Dieser Messwert ist von der Gesamt-Auslastung des Servers abhängig.)
Erzgebirge - Wetter | Erzgebirge - Wetter (Mobilgeräte) | Komplette Klimadatenbank